createdAt,value
2023-02-27T00:00:46.415Z,1.40
2023-02-27T00:01:48.817Z,1.50
2023-02-27T00:02:52.350Z,1.55
2023-02-27T00:03:55.256Z,1.55
2023-02-27T00:04:58.060Z,1.38
2023-02-27T00:06:00.604Z,1.80
2023-02-27T00:07:03.303Z,1.70
2023-02-27T00:08:05.485Z,1.40
2023-02-27T00:09:08.409Z,1.88
2023-02-27T00:10:12.093Z,1.55
2023-02-27T00:11:14.549Z,1.50
2023-02-27T00:12:16.772Z,1.48
2023-02-27T00:13:19.402Z,1.45
2023-02-27T00:14:22.470Z,1.60
2023-02-27T00:15:25.079Z,1.23
2023-02-27T00:16:27.395Z,1.40
2023-02-27T00:17:29.801Z,1.42
2023-02-27T00:18:32.059Z,1.73
2023-02-27T00:19:34.235Z,1.98
2023-02-27T00:20:38.314Z,1.83
2023-02-27T00:21:40.937Z,1.40
2023-02-27T00:22:44.311Z,1.20
2023-02-27T00:23:46.483Z,1.60
2023-02-27T00:24:48.655Z,1.85
2023-02-27T00:25:52.240Z,1.30
2023-02-27T00:26:54.456Z,1.63
2023-02-27T00:27:57.196Z,1.48
2023-02-27T00:28:59.404Z,1.90
2023-02-27T00:30:01.840Z,1.70
2023-02-27T00:31:05.838Z,1.70
2023-02-27T00:32:08.205Z,1.40
2023-02-27T00:33:10.445Z,1.60
2023-02-27T00:34:12.819Z,1.40
2023-02-27T00:35:15.104Z,1.48
2023-02-27T00:36:17.366Z,1.70
2023-02-27T00:37:19.569Z,1.48
2023-02-27T00:38:22.764Z,1.45
2023-02-27T00:39:24.993Z,1.58
2023-02-27T00:40:27.235Z,1.30
2023-02-27T00:41:29.407Z,1.42
2023-02-27T00:42:34.689Z,1.20
2023-02-27T00:43:37.451Z,1.48
2023-02-27T00:44:40.844Z,1.40
2023-02-27T00:45:43.161Z,1.63
2023-02-27T00:46:45.423Z,1.50
2023-02-27T00:47:47.907Z,1.40
2023-02-27T00:48:50.866Z,1.65
2023-02-27T00:49:53.102Z,1.30
2023-02-27T00:50:55.313Z,1.65
2023-02-27T00:51:57.800Z,1.60
2023-02-27T00:53:00.386Z,1.40
2023-02-27T00:54:03.696Z,1.70
2023-02-27T00:55:06.666Z,1.50
2023-02-27T00:56:08.839Z,1.58
2023-02-27T00:57:11.326Z,2.00
2023-02-27T00:58:13.712Z,1.63
2023-02-27T00:59:15.913Z,1.85
2023-02-27T01:00:18.689Z,1.90
2023-02-27T01:01:20.894Z,2.17
2023-02-27T01:02:23.343Z,1.77
2023-02-27T01:03:25.908Z,2.08
2023-02-27T01:04:29.114Z,1.73
2023-02-27T01:05:31.353Z,1.52
2023-02-27T01:06:35.095Z,1.70
2023-02-27T01:07:37.758Z,1.38
2023-02-27T01:08:40.038Z,1.65
2023-02-27T01:09:42.314Z,2.42
2023-02-27T01:10:44.698Z,1.38
2023-02-27T01:11:46.904Z,2.13
2023-02-27T01:12:50.384Z,2.05
2023-02-27T01:13:52.785Z,1.65
2023-02-27T01:14:54.978Z,1.70
2023-02-27T01:15:57.295Z,1.80
2023-02-27T01:16:59.595Z,1.90
2023-02-27T01:18:02.248Z,1.80
2023-02-27T01:19:04.729Z,1.98
2023-02-27T01:20:08.681Z,1.90
2023-02-27T01:21:10.915Z,1.60
2023-02-27T01:22:13.241Z,2.17
2023-02-27T01:23:16.988Z,1.67
2023-02-27T01:24:19.933Z,2.03
2023-02-27T01:25:23.629Z,1.80
2023-02-27T01:26:26.287Z,1.60
2023-02-27T01:27:28.681Z,1.70
2023-02-27T01:28:31.150Z,1.92
2023-02-27T01:29:33.632Z,1.60
2023-02-27T01:30:37.316Z,1.80
2023-02-27T01:31:39.531Z,2.03
2023-02-27T01:32:42.271Z,1.50
2023-02-27T01:33:48.998Z,1.75
2023-02-27T01:34:51.284Z,1.77
2023-02-27T01:35:53.981Z,1.58
2023-02-27T01:36:56.369Z,1.90
2023-02-27T01:37:58.828Z,2.05
2023-02-27T01:39:01.357Z,1.70
2023-02-27T01:40:04.676Z,1.65
2023-02-27T01:41:07.862Z,1.63
2023-02-27T01:42:28.674Z,1.52
2023-02-27T01:43:32.261Z,1.60
2023-02-27T01:45:18.050Z,1.95
2023-02-27T01:46:20.422Z,1.60
2023-02-27T01:47:22.670Z,1.40
2023-02-27T01:48:36.778Z,1.60
2023-02-27T01:49:39.838Z,1.20
2023-02-27T01:50:49.809Z,1.75
2023-02-27T01:51:56.709Z,1.35
2023-02-27T01:53:01.219Z,1.60
2023-02-27T01:54:07.341Z,1.70
2023-02-27T01:55:13.105Z,1.40
2023-02-27T01:56:17.704Z,1.65
2023-02-27T01:57:20.020Z,1.30
2023-02-27T01:58:22.732Z,1.40
2023-02-27T01:59:25.417Z,1.48
2023-02-27T02:00:27.656Z,2.28
2023-02-27T02:01:32.965Z,1.45
2023-02-27T02:02:42.315Z,1.23
2023-02-27T02:03:55.265Z,1.48
2023-02-27T02:04:57.805Z,1.77
2023-02-27T02:06:03.037Z,1.50
2023-02-27T02:07:09.393Z,1.55
2023-02-27T02:08:18.005Z,1.40
2023-02-27T02:09:22.408Z,1.55
2023-02-27T02:10:25.134Z,1.40
2023-02-27T02:11:28.976Z,1.17
2023-02-27T02:12:36.771Z,1.70
2023-02-27T02:13:43.202Z,1.50
2023-02-27T02:14:47.132Z,1.30
2023-02-27T02:16:23.433Z,1.35
2023-02-27T02:17:53.407Z,1.42
2023-02-27T02:19:30.014Z,1.17
2023-02-27T02:21:04.062Z,1.60
2023-02-27T02:22:43.925Z,1.15
2023-02-27T02:24:04.823Z,1.30
2023-02-27T02:25:44.378Z,1.05
2023-02-27T02:27:18.988Z,1.40
2023-02-27T02:28:44.133Z,1.67
2023-02-27T02:30:11.793Z,1.00
2023-02-27T02:31:20.082Z,1.42
2023-02-27T02:32:25.491Z,1.40
2023-02-27T02:34:01.863Z,1.38
2023-02-27T02:35:40.165Z,1.17
2023-02-27T02:36:48.293Z,1.08
2023-02-27T02:38:18.004Z,1.30
2023-02-27T02:39:44.686Z,1.30
2023-02-27T02:40:52.881Z,1.67
2023-02-27T02:42:05.009Z,1.35
2023-02-27T02:43:18.081Z,1.50
2023-02-27T02:44:31.078Z,1.10
2023-02-27T02:45:57.124Z,1.35
2023-02-27T02:47:06.520Z,1.70
2023-02-27T02:48:08.928Z,1.35
2023-02-27T02:49:15.089Z,1.30
2023-02-27T02:50:25.883Z,1.00
2023-02-27T02:51:39.784Z,1.30
2023-02-27T02:53:04.420Z,1.38
2023-02-27T02:54:17.779Z,1.38
2023-02-27T02:55:35.427Z,1.20
2023-02-27T02:57:24.668Z,1.05
2023-02-27T02:58:32.479Z,1.27
2023-02-27T03:00:10.158Z,1.40
2023-02-27T03:01:22.110Z,1.17
2023-02-27T03:02:30.501Z,1.88
2023-02-27T03:03:36.311Z,1.65
2023-02-27T03:04:49.812Z,1.33
2023-02-27T03:06:00.533Z,1.60
2023-02-27T03:07:13.873Z,1.25
2023-02-27T03:08:24.955Z,1.15
2023-02-27T03:09:34.171Z,1.77
2023-02-27T03:10:40.557Z,1.33
2023-02-27T03:11:47.457Z,0.98
2023-02-27T03:12:59.494Z,1.30
2023-02-27T03:14:18.810Z,1.40
2023-02-27T03:15:37.068Z,1.30
2023-02-27T03:16:46.373Z,1.27
2023-02-27T03:17:59.533Z,1.42
2023-02-27T03:19:22.179Z,1.80
2023-02-27T03:20:29.778Z,1.60
2023-02-27T03:21:42.923Z,1.80
2023-02-27T03:22:50.234Z,1.20
2023-02-27T03:23:56.174Z,1.38
2023-02-27T03:25:02.434Z,1.85
2023-02-27T03:26:06.204Z,1.50
2023-02-27T03:27:09.838Z,1.20
2023-02-27T03:28:17.368Z,1.35
2023-02-27T03:29:58.078Z,1.38
2023-02-27T03:31:07.331Z,1.40
2023-02-27T03:32:48.330Z,1.23
2023-02-27T03:34:01.454Z,1.27
2023-02-27T03:35:07.193Z,1.30
2023-02-27T03:36:18.967Z,1.40
2023-02-27T03:37:38.516Z,1.70
2023-02-27T03:38:51.265Z,1.55
2023-02-27T03:40:08.956Z,1.50
2023-02-27T03:41:28.595Z,1.40
2023-02-27T03:43:17.603Z,1.35
2023-02-27T03:44:36.320Z,1.27
2023-02-27T03:46:08.576Z,1.40
2023-02-27T03:47:10.908Z,1.50
2023-02-27T03:48:13.638Z,1.30
2023-02-27T03:49:15.851Z,1.80
2023-02-27T03:50:18.589Z,1.40
2023-02-27T03:51:23.642Z,1.58
2023-02-27T03:52:29.792Z,1.30
2023-02-27T03:53:45.720Z,1.63
2023-02-27T03:54:57.404Z,1.17
2023-02-27T03:56:02.970Z,1.13
2023-02-27T03:57:07.757Z,1.42
2023-02-27T03:58:10.538Z,1.58
2023-02-27T03:59:14.082Z,1.20
2023-02-27T04:00:24.767Z,1.42
2023-02-27T04:01:27.695Z,1.27
2023-02-27T04:02:30.261Z,1.20
2023-02-27T04:03:39.312Z,1.10
2023-02-27T04:04:42.607Z,1.33
2023-02-27T04:05:47.503Z,1.02
2023-02-27T04:07:22.650Z,1.02
2023-02-27T04:08:54.796Z,1.40
2023-02-27T04:10:14.867Z,1.33
2023-02-27T04:11:29.407Z,1.17
2023-02-27T04:12:41.563Z,1.25
2023-02-27T04:14:06.953Z,1.10
2023-02-27T04:15:09.117Z,1.35
2023-02-27T04:16:23.115Z,1.40
2023-02-27T04:17:29.642Z,1.27
2023-02-27T04:18:59.796Z,1.25
2023-02-27T04:20:36.547Z,1.73
2023-02-27T04:22:10.776Z,1.20
2023-02-27T04:23:27.431Z,1.20
2023-02-27T04:24:51.131Z,1.20
2023-02-27T04:26:08.185Z,1.30
2023-02-27T04:27:34.980Z,1.20
2023-02-27T04:28:43.710Z,1.60
2023-02-27T04:29:56.454Z,1.58
2023-02-27T04:31:20.287Z,1.63
2023-02-27T04:32:35.764Z,1.55
2023-02-27T04:34:06.701Z,1.67
2023-02-27T04:35:17.370Z,1.27
2023-02-27T04:37:52.592Z,1.52
2023-02-27T04:39:00.671Z,2.20
2023-02-27T04:40:09.379Z,1.27
2023-02-27T04:41:47.548Z,1.50
2023-02-27T04:42:56.932Z,1.67
2023-02-27T04:44:00.709Z,1.60
2023-02-27T04:45:06.430Z,1.30
2023-02-27T04:46:12.523Z,1.05
2023-02-27T04:47:17.694Z,1.60
2023-02-27T04:48:25.476Z,1.27
2023-02-27T04:49:40.428Z,1.38
2023-02-27T04:50:50.132Z,1.20
2023-02-27T04:52:11.077Z,1.25
2023-02-27T04:54:29.253Z,1.13
2023-02-27T04:55:37.212Z,0.90
2023-02-27T04:56:47.893Z,1.60
2023-02-27T04:59:00.589Z,1.15
2023-02-27T05:00:07.992Z,1.45
2023-02-27T05:01:18.988Z,1.25
2023-02-27T05:03:42.989Z,1.23
2023-02-27T05:04:47.854Z,1.40
2023-02-27T05:05:55.069Z,1.65
2023-02-27T05:07:00.363Z,1.88
2023-02-27T05:08:09.282Z,1.52
2023-02-27T05:09:33.211Z,1.48
2023-02-27T05:10:58.060Z,1.73
2023-02-27T05:12:05.931Z,1.40
2023-02-27T05:13:25.171Z,2.00
2023-02-27T05:14:33.081Z,1.70
2023-02-27T05:15:45.981Z,2.08
2023-02-27T05:16:58.678Z,1.90
2023-02-27T05:18:14.823Z,1.60
2023-02-27T05:19:18.045Z,1.88
2023-02-27T05:20:21.981Z,1.80
2023-02-27T05:21:45.384Z,1.50
2023-02-27T05:22:56.567Z,2.00
2023-02-27T05:24:23.214Z,1.70
2023-02-27T05:25:50.052Z,1.40
2023-02-27T05:27:01.348Z,2.00
2023-02-27T05:28:17.471Z,1.70
2023-02-27T05:29:47.093Z,1.70
2023-02-27T05:30:57.236Z,2.08
2023-02-27T05:32:15.157Z,2.00
2023-02-27T05:33:33.422Z,1.60
2023-02-27T05:34:44.683Z,1.55
2023-02-27T05:36:11.094Z,1.63
2023-02-27T05:37:36.266Z,1.65
2023-02-27T05:38:52.316Z,1.80
2023-02-27T05:39:54.564Z,1.55
2023-02-27T05:41:06.362Z,1.83
2023-02-27T05:42:36.818Z,1.45
2023-02-27T05:43:47.148Z,1.70
2023-02-27T05:44:54.463Z,1.67
2023-02-27T05:46:03.514Z,1.83
2023-02-27T05:47:10.706Z,1.60
2023-02-27T05:48:19.538Z,2.10
2023-02-27T05:49:37.284Z,2.20
2023-02-27T05:50:41.065Z,1.42
2023-02-27T05:51:47.030Z,1.70
2023-02-27T05:52:51.780Z,2.03
2023-02-27T05:54:02.745Z,1.60
2023-02-27T05:56:14.212Z,2.17
2023-02-27T05:57:24.393Z,1.98
2023-02-27T05:58:42.689Z,1.73
2023-02-27T05:59:59.942Z,1.75
2023-02-27T06:01:05.362Z,2.05
2023-02-27T06:02:07.596Z,1.88
2023-02-27T06:03:10.115Z,1.92
2023-02-27T06:04:13.574Z,1.80
2023-02-27T06:05:17.829Z,1.80
2023-02-27T06:06:20.848Z,2.30
2023-02-27T06:07:23.585Z,2.05
2023-02-27T06:08:26.321Z,1.70
2023-02-27T06:09:29.004Z,1.80
2023-02-27T06:10:31.589Z,1.45
2023-02-27T06:11:33.787Z,1.77
2023-02-27T06:12:36.203Z,1.60
2023-02-27T06:13:41.525Z,1.75
2023-02-27T06:14:44.292Z,1.50
2023-02-27T06:15:47.012Z,1.65
2023-02-27T06:16:49.198Z,1.88
2023-02-27T06:17:51.549Z,1.50
2023-02-27T06:18:55.442Z,1.92
2023-02-27T06:19:57.620Z,1.85
2023-02-27T06:21:00.050Z,2.20
2023-02-27T06:22:02.348Z,2.25
2023-02-27T06:23:04.676Z,2.03
2023-02-27T06:24:06.829Z,1.80
2023-02-27T06:25:10.668Z,1.77
2023-02-27T06:26:14.512Z,1.88
2023-02-27T06:27:17.453Z,1.98
2023-02-27T06:28:19.653Z,1.70
2023-02-27T06:29:21.957Z,2.00
2023-02-27T06:30:24.404Z,1.77
2023-02-27T06:31:27.038Z,2.10
2023-02-27T06:32:29.242Z,2.58
2023-02-27T06:33:31.400Z,2.10
2023-02-27T06:34:33.589Z,11.25
2023-02-27T06:35:35.866Z,2.97
2023-02-27T06:36:38.325Z,3.50
2023-02-27T06:37:40.465Z,2.88
2023-02-27T06:38:42.697Z,3.88
2023-02-27T06:39:45.077Z,4.57
2023-02-27T06:40:47.271Z,2.80
2023-02-27T06:41:49.860Z,3.03
2023-02-27T06:42:52.176Z,3.10
2023-02-27T06:43:55.701Z,2.75
2023-02-27T06:44:58.324Z,2.80
2023-02-27T06:46:00.998Z,3.92
2023-02-27T06:47:03.398Z,5.07
2023-02-27T06:48:05.918Z,3.83
2023-02-27T06:49:08.145Z,4.30
2023-02-27T06:50:12.890Z,3.47
2023-02-27T06:51:15.356Z,3.58
2023-02-27T06:52:17.778Z,2.92
2023-02-27T06:53:20.338Z,3.13
2023-02-27T06:54:23.019Z,2.75
2023-02-27T06:55:25.754Z,2.60
2023-02-27T06:56:28.334Z,2.42
2023-02-27T06:57:31.621Z,3.83
2023-02-27T06:58:33.790Z,7.90
2023-02-27T06:59:35.993Z,2.92
2023-02-27T07:00:38.209Z,2.08
2023-02-27T07:01:40.410Z,2.00
2023-02-27T07:02:43.700Z,1.70
2023-02-27T07:03:45.948Z,2.17
2023-02-27T07:04:48.289Z,2.00
2023-02-27T07:05:50.702Z,1.83
2023-02-27T07:07:32.987Z,1.60
2023-02-27T07:08:17.673Z,1.90
2023-02-27T07:09:19.874Z,1.98
2023-02-27T07:10:22.097Z,1.77
2023-02-27T07:11:24.911Z,1.95
2023-02-27T07:12:27.249Z,2.10
2023-02-27T07:13:29.452Z,1.70
2023-02-27T07:14:31.681Z,1.85
2023-02-27T07:15:34.086Z,1.95
2023-02-27T07:16:36.532Z,1.80
2023-02-27T07:17:39.148Z,1.85
2023-02-27T07:18:41.851Z,2.30
2023-02-27T07:19:45.432Z,2.08
2023-02-27T07:20:51.153Z,1.98
2023-02-27T07:21:53.550Z,2.28
2023-02-27T07:22:56.147Z,2.47
2023-02-27T07:23:58.392Z,2.80
2023-02-27T07:25:00.810Z,3.33
2023-02-27T07:26:02.986Z,3.83
2023-02-27T07:27:05.294Z,4.70
2023-02-27T07:28:08.042Z,6.32
2023-02-27T07:29:10.466Z,7.50
2023-02-27T07:30:13.137Z,6.55
2023-02-27T07:31:15.564Z,3.80
2023-02-27T07:32:17.854Z,4.10
2023-02-27T07:33:20.618Z,4.75
2023-02-27T07:34:22.776Z,3.60
2023-02-27T07:35:25.048Z,4.70
2023-02-27T07:36:27.719Z,4.53
2023-02-27T07:37:30.154Z,4.00
2023-02-27T07:38:32.608Z,3.22
2023-02-27T07:39:34.827Z,3.00
2023-02-27T07:40:37.005Z,3.08
2023-02-27T07:41:39.274Z,3.60
2023-02-27T07:42:41.547Z,3.65
2023-02-27T07:43:44.123Z,3.30
2023-02-27T07:44:46.457Z,3.58
2023-02-27T07:45:51.043Z,4.00
2023-02-27T07:46:53.303Z,4.15
2023-02-27T07:47:55.513Z,3.55
2023-02-27T07:48:57.869Z,3.72
2023-02-27T07:50:00.065Z,2.40
2023-02-27T07:51:02.334Z,2.83
2023-02-27T07:52:04.522Z,2.30
2023-02-27T07:53:08.014Z,2.83
2023-02-27T07:54:10.608Z,2.90
2023-02-27T07:55:14.319Z,2.85
2023-02-27T07:56:16.682Z,2.67
2023-02-27T07:57:18.874Z,2.38
2023-02-27T07:58:21.312Z,2.50
2023-02-27T07:59:23.896Z,2.72
2023-02-27T08:00:26.349Z,2.70
2023-02-27T08:01:28.662Z,2.47
2023-02-27T08:02:30.855Z,2.42
2023-02-27T08:03:33.313Z,2.10
2023-02-27T08:04:35.635Z,2.33
2023-02-27T08:05:37.944Z,2.25
2023-02-27T08:06:40.399Z,2.45
2023-02-27T08:07:42.930Z,2.85
2023-02-27T08:08:45.948Z,2.38
2023-02-27T08:09:48.193Z,2.40
2023-02-27T08:10:50.590Z,2.30
2023-02-27T08:11:52.736Z,1.90
2023-02-27T08:12:55.151Z,2.05
2023-02-27T08:14:02.110Z,2.95
2023-02-27T08:15:05.511Z,2.13
2023-02-27T08:16:08.268Z,2.00
2023-02-27T08:17:10.732Z,2.30
2023-02-27T08:18:12.934Z,2.08
2023-02-27T08:19:15.408Z,2.45
2023-02-27T08:20:22.512Z,2.38
2023-02-27T08:21:25.016Z,2.40
2023-02-27T08:22:27.441Z,2.80
2023-02-27T08:23:29.704Z,2.78
2023-02-27T08:24:32.134Z,2.75
2023-02-27T08:25:34.422Z,2.45
2023-02-27T08:26:36.705Z,2.40
2023-02-27T08:27:38.936Z,2.33
2023-02-27T08:28:41.700Z,2.60
2023-02-27T08:29:45.628Z,2.70
2023-02-27T08:30:55.129Z,2.47
2023-02-27T08:31:57.862Z,2.75
2023-02-27T08:33:00.267Z,2.67
2023-02-27T08:34:10.166Z,2.75
2023-02-27T08:35:13.576Z,2.70
2023-02-27T08:36:15.788Z,2.78
2023-02-27T08:37:18.296Z,2.65
2023-02-27T08:38:20.864Z,2.65
2023-02-27T08:39:25.779Z,2.75
2023-02-27T08:40:28.265Z,3.25
2023-02-27T08:41:30.539Z,2.65
2023-02-27T08:42:33.661Z,2.70
2023-02-27T08:43:36.013Z,3.33
2023-02-27T08:44:38.466Z,2.35
2023-02-27T08:45:40.793Z,2.30
2023-02-27T08:46:43.020Z,2.35
2023-02-27T08:47:48.016Z,2.47
2023-02-27T08:48:50.280Z,2.70
2023-02-27T08:49:52.597Z,2.60
2023-02-27T08:50:57.387Z,2.00
2023-02-27T08:52:01.148Z,2.50
2023-02-27T08:53:03.342Z,2.45
2023-02-27T08:54:05.896Z,2.00
2023-02-27T08:55:09.338Z,1.77
2023-02-27T08:56:11.644Z,2.08
2023-02-27T08:57:13.818Z,2.03
2023-02-27T08:58:18.063Z,2.47
2023-02-27T08:59:20.422Z,2.90
2023-02-27T09:00:23.638Z,2.50
2023-02-27T09:01:28.560Z,2.30
2023-02-27T09:02:31.145Z,2.30
2023-02-27T09:03:33.629Z,2.30
2023-02-27T09:04:36.103Z,2.28
2023-02-27T09:05:38.773Z,1.92
2023-02-27T09:06:40.980Z,2.33
2023-02-27T09:07:43.291Z,2.20
2023-02-27T09:08:45.484Z,2.50
2023-02-27T09:09:49.733Z,2.30
2023-02-27T09:10:57.306Z,2.00
2023-02-27T09:11:59.545Z,2.50
2023-02-27T09:13:02.226Z,2.17
2023-02-27T09:14:04.856Z,2.50
2023-02-27T09:15:07.740Z,2.40
2023-02-27T09:16:10.296Z,2.10
2023-02-27T09:17:12.550Z,2.40
2023-02-27T09:18:14.777Z,2.28
2023-02-27T09:19:17.031Z,2.60
2023-02-27T09:20:19.226Z,2.78
2023-02-27T09:21:23.628Z,2.63
2023-02-27T09:22:25.897Z,2.33
2023-02-27T09:23:28.091Z,2.00
2023-02-27T09:24:30.578Z,2.55
2023-02-27T09:25:32.975Z,2.15
2023-02-27T09:26:43.626Z,2.60
2023-02-27T09:27:48.099Z,2.80
2023-02-27T09:28:50.463Z,2.78
2023-02-27T09:29:55.579Z,2.60
2023-02-27T09:31:08.659Z,3.03
2023-02-27T09:32:10.900Z,2.35
2023-02-27T09:33:15.182Z,2.30
2023-02-27T09:34:17.404Z,2.28
2023-02-27T09:35:23.089Z,2.20
2023-02-27T09:36:25.984Z,2.60
2023-02-27T09:37:28.460Z,2.45
2023-02-27T09:38:31.108Z,2.78
2023-02-27T09:39:33.322Z,2.78
2023-02-27T09:40:41.298Z,2.47
2023-02-27T09:41:53.953Z,2.30
2023-02-27T09:43:00.680Z,2.35
2023-02-27T09:44:03.279Z,2.95
2023-02-27T09:45:09.799Z,2.60
2023-02-27T09:46:19.364Z,2.15
2023-02-27T09:47:46.016Z,2.58
2023-02-27T09:48:53.619Z,2.90
2023-02-27T09:50:03.919Z,2.83
2023-02-27T09:51:06.660Z,2.50
2023-02-27T09:52:13.750Z,2.90
2023-02-27T09:53:30.908Z,2.50
2023-02-27T09:54:34.468Z,2.50
2023-02-27T09:55:40.559Z,2.30
2023-02-27T09:56:54.055Z,2.53
2023-02-27T09:58:22.040Z,2.50
2023-02-27T09:59:36.272Z,2.28
2023-02-27T10:00:52.177Z,1.90
2023-02-27T10:02:06.505Z,2.28
2023-02-27T10:03:27.838Z,2.72
2023-02-27T10:04:44.652Z,2.45
2023-02-27T10:06:18.293Z,2.67
2023-02-27T10:07:28.833Z,2.55
2023-02-27T10:08:39.545Z,2.08
2023-02-27T10:11:03.854Z,2.70
2023-02-27T10:12:35.129Z,2.60
2023-02-27T10:13:55.802Z,2.70
2023-02-27T10:15:05.933Z,2.75
2023-02-27T10:16:12.751Z,2.75
2023-02-27T10:17:24.799Z,2.72
2023-02-27T10:19:01.615Z,2.45
2023-02-27T10:20:10.610Z,1.92
2023-02-27T10:21:21.609Z,2.35
2023-02-27T10:22:30.482Z,2.40
2023-02-27T10:23:43.077Z,2.65
2023-02-27T10:24:51.331Z,2.92
2023-02-27T10:25:55.099Z,2.83
2023-02-27T10:26:59.751Z,2.53
2023-02-27T10:28:20.051Z,2.80
2023-02-27T10:29:30.921Z,1.98
2023-02-27T10:30:34.892Z,2.72
2023-02-27T10:31:37.671Z,3.47
2023-02-27T10:32:40.876Z,3.15
2023-02-27T10:33:45.261Z,2.67
2023-02-27T10:34:54.854Z,2.15
2023-02-27T10:35:57.897Z,2.15
2023-02-27T10:37:03.960Z,1.70
2023-02-27T10:38:29.429Z,2.20
2023-02-27T10:39:48.511Z,1.88
2023-02-27T10:40:50.768Z,2.00
2023-02-27T10:41:53.204Z,1.83
2023-02-27T10:42:57.773Z,2.05
2023-02-27T10:44:00.622Z,2.33
2023-02-27T10:45:04.934Z,1.83
2023-02-27T10:46:15.225Z,2.17
2023-02-27T10:47:17.514Z,2.10
2023-02-27T10:48:20.515Z,2.08
2023-02-27T10:49:23.212Z,1.65
2023-02-27T10:50:28.675Z,2.05
2023-02-27T10:51:36.342Z,2.17
2023-02-27T10:52:52.839Z,1.90
2023-02-27T10:54:25.617Z,2.30
2023-02-27T10:55:33.876Z,2.40
2023-02-27T10:56:36.248Z,2.28
2023-02-27T10:57:42.859Z,2.42
2023-02-27T10:58:45.520Z,1.95
2023-02-27T10:59:55.096Z,1.90
2023-02-27T11:01:00.393Z,2.00
2023-02-27T11:02:17.535Z,2.20
2023-02-27T11:03:24.083Z,2.05
2023-02-27T11:04:36.785Z,2.47
2023-02-27T11:05:39.815Z,1.90
2023-02-27T11:06:42.519Z,1.98
2023-02-27T11:07:45.522Z,2.28
2023-02-27T11:09:12.969Z,2.58
2023-02-27T11:10:19.548Z,2.15
2023-02-27T11:11:28.239Z,2.17
2023-02-27T11:12:34.930Z,2.15
2023-02-27T11:13:44.898Z,2.22
2023-02-27T11:14:55.804Z,2.30
2023-02-27T11:17:06.514Z,1.80
2023-02-27T11:18:29.735Z,2.00
2023-02-27T11:19:36.313Z,1.75
2023-02-27T11:20:40.658Z,2.00
2023-02-27T11:22:02.217Z,2.25
2023-02-27T11:23:16.877Z,2.10
2023-02-27T11:24:20.399Z,2.13
2023-02-27T11:25:26.139Z,1.67
2023-02-27T11:26:33.336Z,1.48
2023-02-27T11:27:35.512Z,1.48
2023-02-27T11:28:37.721Z,1.90
2023-02-27T11:29:57.004Z,1.45
2023-02-27T11:31:06.122Z,1.60
2023-02-27T11:32:14.704Z,1.75
2023-02-27T11:33:20.346Z,1.40
2023-02-27T11:34:36.777Z,1.52
2023-02-27T11:35:39.547Z,1.65
2023-02-27T11:36:45.263Z,1.60
2023-02-27T11:37:50.941Z,1.35
2023-02-27T11:38:54.912Z,1.20
2023-02-27T11:40:09.481Z,1.65
2023-02-27T11:41:12.532Z,1.30
2023-02-27T11:42:29.183Z,2.60
2023-02-27T11:43:34.645Z,2.33
2023-02-27T11:44:50.564Z,1.90
2023-02-27T11:46:04.554Z,1.63
2023-02-27T11:47:27.223Z,1.40
2023-02-27T11:48:29.488Z,2.10
2023-02-27T11:50:04.379Z,2.05
2023-02-27T11:51:09.509Z,1.83
2023-02-27T11:52:29.990Z,1.33
2023-02-27T11:53:47.688Z,1.30
2023-02-27T11:54:57.918Z,1.10
2023-02-27T11:56:03.775Z,1.00
2023-02-27T11:57:26.168Z,0.80
2023-02-27T11:58:40.433Z,0.73
2023-02-27T11:59:49.679Z,0.93
2023-02-27T12:00:56.808Z,0.73
2023-02-27T12:02:28.975Z,0.90
2023-02-27T12:03:47.532Z,0.70
2023-02-27T12:04:51.951Z,1.23
2023-02-27T12:06:00.810Z,2.35
2023-02-27T12:07:19.073Z,0.70
2023-02-27T12:08:43.031Z,0.70
2023-02-27T12:09:47.861Z,0.80
2023-02-27T12:11:12.316Z,0.57
2023-02-27T12:12:36.773Z,0.45
2023-02-27T12:13:42.472Z,0.77
2023-02-27T12:14:51.929Z,0.60
2023-02-27T12:16:00.406Z,0.70
2023-02-27T12:17:13.228Z,0.50
2023-02-27T12:18:28.926Z,0.50
2023-02-27T12:20:22.525Z,0.70
2023-02-27T12:21:28.668Z,0.40
2023-02-27T12:22:38.750Z,0.60
2023-02-27T12:23:46.686Z,1.42
2023-02-27T12:25:04.392Z,0.60
2023-02-27T12:26:12.441Z,0.50
2023-02-27T12:27:43.843Z,0.63
2023-02-27T12:29:10.519Z,0.40
2023-02-27T12:30:26.361Z,1.67
2023-02-27T12:31:34.339Z,0.60
2023-02-27T12:32:43.732Z,0.50
2023-02-27T12:33:59.069Z,0.57
2023-02-27T12:35:13.226Z,0.60
2023-02-27T12:36:15.909Z,0.90
2023-02-27T12:37:28.913Z,1.58
2023-02-27T12:38:32.500Z,0.98
2023-02-27T12:39:35.078Z,1.27
2023-02-27T12:40:40.781Z,1.33
2023-02-27T12:42:16.527Z,0.80
2023-02-27T12:43:21.759Z,0.90
2023-02-27T12:44:42.581Z,2.10
2023-02-27T12:46:05.329Z,1.02
2023-02-27T12:47:31.940Z,2.20
2023-02-27T12:48:46.853Z,0.80
2023-02-27T12:50:07.301Z,0.60
2023-02-27T12:51:09.598Z,1.10
2023-02-27T12:52:11.729Z,0.70
2023-02-27T12:53:32.760Z,0.88
2023-02-27T12:55:04.591Z,0.80
2023-02-27T12:56:17.437Z,0.73
2023-02-27T12:57:50.146Z,1.30
2023-02-27T12:59:04.545Z,0.85
2023-02-27T13:00:25.987Z,0.93
2023-02-27T13:01:36.941Z,0.80
2023-02-27T13:04:18.065Z,0.95
2023-02-27T13:05:46.041Z,0.60
2023-02-27T13:07:08.274Z,0.52
2023-02-27T13:08:18.044Z,0.70
2023-02-27T13:09:33.257Z,0.63
2023-02-27T13:11:00.773Z,0.60
2023-02-27T13:12:15.124Z,0.73
2023-02-27T13:13:38.797Z,0.60
2023-02-27T13:14:56.205Z,0.90
2023-02-27T13:16:25.807Z,0.52
2023-02-27T13:17:44.996Z,0.90
2023-02-27T13:19:15.825Z,0.80
2023-02-27T13:20:21.028Z,0.80
2023-02-27T13:21:40.773Z,0.90
2023-02-27T13:22:54.446Z,0.93
2023-02-27T13:24:29.435Z,1.38
2023-02-27T13:25:35.227Z,0.95
2023-02-27T13:26:50.247Z,1.00
2023-02-27T13:28:00.206Z,0.90
2023-02-27T13:29:03.936Z,0.90
2023-02-27T13:30:24.045Z,1.20
2023-02-27T13:31:45.120Z,1.00
2023-02-27T13:33:15.639Z,1.20
2023-02-27T13:34:30.313Z,1.30
2023-02-27T13:36:01.810Z,0.82
2023-02-27T13:37:06.726Z,1.00
2023-02-27T13:38:41.732Z,1.10
2023-02-27T13:39:45.010Z,1.20
2023-02-27T13:40:47.276Z,1.00
2023-02-27T13:41:49.574Z,0.90
2023-02-27T13:42:54.475Z,1.33
2023-02-27T13:44:20.358Z,1.23
2023-02-27T13:45:57.177Z,1.20
2023-02-27T13:47:31.467Z,1.20
2023-02-27T13:48:33.733Z,1.00
2023-02-27T13:49:43.061Z,1.10
2023-02-27T13:50:50.362Z,1.15
2023-02-27T13:51:54.067Z,1.27
2023-02-27T13:52:56.748Z,1.02
2023-02-27T13:54:13.987Z,1.00
2023-02-27T13:55:24.948Z,1.48
2023-02-27T13:56:28.030Z,1.10
2023-02-27T13:57:33.265Z,1.20
2023-02-27T13:58:36.065Z,1.08
2023-02-27T13:59:40.995Z,1.42
2023-02-27T14:00:53.606Z,1.63
2023-02-27T14:01:57.318Z,1.40
2023-02-27T14:03:20.774Z,0.95
2023-02-27T14:04:27.775Z,1.55
2023-02-27T14:05:40.119Z,1.40
2023-02-27T14:06:45.717Z,1.40
2023-02-27T14:08:04.389Z,1.08
2023-02-27T14:09:15.193Z,1.20
2023-02-27T14:10:26.866Z,1.08
2023-02-27T14:11:39.761Z,1.30
2023-02-27T14:12:46.487Z,1.50
2023-02-27T14:13:49.991Z,1.13
2023-02-27T14:14:52.972Z,1.80
2023-02-27T14:15:57.113Z,1.17
2023-02-27T14:17:00.706Z,1.42
2023-02-27T14:18:15.911Z,1.15
2023-02-27T14:19:23.553Z,1.20
2023-02-27T14:20:30.113Z,1.40
2023-02-27T14:22:02.977Z,1.98
2023-02-27T14:23:17.597Z,1.45
2023-02-27T14:24:23.639Z,1.58
2023-02-27T14:25:39.382Z,1.50
2023-02-27T14:26:46.398Z,1.55
2023-02-27T14:27:53.823Z,1.45
2023-02-27T14:28:59.252Z,1.30
2023-02-27T14:30:07.871Z,1.17
2023-02-27T14:31:22.668Z,1.27
2023-02-27T14:32:32.995Z,2.00
2023-02-27T14:33:48.351Z,1.17
2023-02-27T14:34:53.677Z,1.27
2023-02-27T14:36:02.705Z,1.23
2023-02-27T14:37:11.663Z,1.30
2023-02-27T14:38:19.401Z,1.65
2023-02-27T14:39:30.002Z,1.83
2023-02-27T14:40:38.328Z,1.42
2023-02-27T14:41:56.159Z,1.88
2023-02-27T14:43:35.874Z,1.15
2023-02-27T14:44:45.057Z,1.20
2023-02-27T14:45:48.272Z,1.30
2023-02-27T14:46:53.673Z,1.98
2023-02-27T14:47:57.872Z,2.50
2023-02-27T14:49:29.180Z,1.92
2023-02-27T14:50:37.573Z,1.25
2023-02-27T14:51:40.537Z,1.17
2023-02-27T14:52:43.455Z,1.70
2023-02-27T14:53:45.824Z,1.65
2023-02-27T14:54:49.029Z,1.33
2023-02-27T14:55:59.628Z,1.50
2023-02-27T14:57:04.394Z,1.42
2023-02-27T14:58:15.092Z,1.00
2023-02-27T15:00:50.803Z,1.08
2023-02-27T15:01:55.931Z,1.50
2023-02-27T15:02:59.711Z,1.55
2023-02-27T15:04:02.265Z,1.40
2023-02-27T15:05:13.564Z,1.40
2023-02-27T15:06:23.887Z,2.03
2023-02-27T15:07:28.648Z,1.30
2023-02-27T15:08:40.459Z,1.20
2023-02-27T15:09:44.753Z,1.67
2023-02-27T15:10:47.600Z,1.20
2023-02-27T15:12:02.957Z,1.23
2023-02-27T15:13:06.428Z,1.30
2023-02-27T15:14:08.856Z,1.20
2023-02-27T15:15:18.472Z,1.20
2023-02-27T15:16:21.176Z,1.40
2023-02-27T15:17:26.389Z,1.60
2023-02-27T15:18:28.597Z,1.38
2023-02-27T15:19:30.877Z,1.50
2023-02-27T15:20:35.684Z,1.50
2023-02-27T15:21:41.974Z,2.00
2023-02-27T15:22:44.337Z,2.22
2023-02-27T15:24:07.141Z,1.80
2023-02-27T15:25:31.112Z,1.88
2023-02-27T15:26:39.803Z,1.40
2023-02-27T15:27:42.458Z,1.85
2023-02-27T15:28:44.921Z,1.52
2023-02-27T15:29:56.095Z,2.90